Time;durP1;ratioP1;P1;durP2;ratioP2;P2;SDS_P1;SDS_P2;PMS_P1;PMS_P2;Temp;Humidity;BMP_temperature;BMP_pressure;BME280_temperature;BME280_humidity;BME280_pressure;Samples;Min_cycle;Max_cycle;Signal;HPM_P1;HPM_P2
2022/03/02 00:01:40;;;;;;;;;48.00;37.67;;;;;9.34;100.00;101941.13;4940063;28;45245;-85
2022/03/02 00:04:06;;;;;;;;;52.00;42.00;;;;;9.30;100.00;101936.88;4941843;28;45246;-83
2022/03/02 00:06:31;;;;;;;;;53.33;43.67;;;;;9.25;100.00;101929.09;4948286;28;44813;-85
2022/03/02 00:08:57;;;;;;;;;48.67;38.33;;;;;9.25;100.00;101928.25;4951271;28;45236;-84
2022/03/02 00:11:23;;;;;;;;;49.33;38.33;;;;;9.20;100.00;101932.88;4955002;28;45372;-84
2022/03/02 00:13:48;;;;;;;;;54.67;43.00;;;;;9.18;100.00;101930.28;4952237;28;44909;-84
2022/03/02 00:16:14;;;;;;;;;44.00;36.33;;;;;9.15;100.00;101929.56;4945319;28;45379;-85
2022/03/02 00:18:40;;;;;;;;;49.67;42.67;;;;;9.12;100.00;101924.38;4938451;28;45274;-84
2022/03/02 00:21:06;;;;;;;;;48.00;39.33;;;;;9.09;100.00;101912.13;4939320;28;44827;-86
2022/03/02 00:23:32;;;;;;;;;51.33;38.00;;;;;9.06;100.00;101917.56;4939950;28;44826;-85
2022/03/02 00:25:57;;;;;;;;;53.33;42.67;;;;;9.04;100.00;101913.22;4922918;28;44977;-84
2022/03/02 00:28:23;;;;;;;;;56.00;43.00;;;;;8.97;100.00;101908.19;4940123;28;45402;-86
2022/03/02 00:30:49;;;;;;;;;50.00;42.00;;;;;8.94;100.00;101907.44;4939747;28;44979;-85
2022/03/02 00:33:15;;;;;;;;;50.00;41.00;;;;;8.88;100.00;101903.25;4939269;28;45400;-84
2022/03/02 00:35:40;;;;;;;;;50.33;41.00;;;;;8.82;100.00;101905.31;4941070;28;44876;-85
2022/03/02 00:38:09;;;;;;;;;51.00;41.00;;;;;8.81;100.00;101904.47;4942896;28;44919;-85
2022/03/02 00:40:35;;;;;;;;;56.33;43.00;;;;;8.78;100.00;101901.91;4944317;28;44819;-86
2022/03/02 00:43:01;;;;;;;;;48.00;40.33;;;;;8.77;100.00;101908.16;4940437;28;45490;-84
2022/03/02 00:45:26;;;;;;;;;52.67;43.33;;;;;8.71;100.00;101905.75;4940169;28;44875;-84
2022/03/02 00:47:52;;;;;;;;;51.00;42.00;;;;;8.70;100.00;101901.34;4946412;28;45390;-85
2022/03/02 00:50:17;;;;;;;;;51.67;40.00;;;;;8.68;100.00;101897.91;4944443;28;45353;-84
2022/03/02 00:52:44;;;;;;;;;50.00;40.00;;;;;8.68;100.00;101898.78;4942379;28;45431;-85
2022/03/02 00:55:09;;;;;;;;;57.33;43.00;;;;;8.64;100.00;101901.63;4943819;28;44712;-85
2022/03/02 00:57:34;;;;;;;;;53.33;43.67;;;;;8.63;100.00;101899.91;4925484;28;45391;-85
2022/03/02 01:00:00;;;;;;;;;61.00;44.00;;;;;8.60;100.00;101894.72;4923181;28;44990;-85
2022/03/02 01:02:25;;;;;;;;;54.33;43.67;;;;;8.61;100.00;101901.75;4939717;28;44693;-84
2022/03/02 01:04:51;;;;;;;;;56.33;43.67;;;;;8.61;100.00;101897.31;4940188;28;44783;-85
2022/03/02 01:07:16;;;;;;;;;50.33;38.33;;;;;8.57;100.00;101895.72;4940744;28;45131;-84
2022/03/02 01:09:42;;;;;;;;;51.67;41.33;;;;;8.52;100.00;101900.34;4944466;28;45364;-85
2022/03/02 01:12:07;;;;;;;;;55.67;45.67;;;;;8.47;100.00;101897.88;4942260;28;44748;-84
2022/03/02 01:14:33;;;;;;;;;52.67;43.00;;;;;8.43;100.00;101893.59;4942230;28;44783;-84
2022/03/02 01:16:59;;;;;;;;;47.00;39.67;;;;;8.42;100.00;101886.59;4924504;28;46596;-85
2022/03/02 01:19:24;;;;;;;;;49.00;40.33;;;;;8.42;100.00;101896.31;4943770;28;45343;-83
2022/03/02 01:21:50;;;;;;;;;52.33;41.67;;;;;8.41;100.00;101886.63;4942383;28;44777;-85
2022/03/02 01:24:15;;;;;;;;;55.00;43.00;;;;;8.41;100.00;101886.63;4943184;28;44733;-85
2022/03/02 01:26:41;;;;;;;;;54.67;44.33;;;;;8.38;100.00;101886.78;4943307;28;45014;-84
2022/03/02 01:29:06;;;;;;;;;52.67;40.67;;;;;8.38;100.00;101887.63;4926480;28;44795;-83
2022/03/02 01:31:32;;;;;;;;;57.67;42.00;;;;;8.40;100.00;101883.13;4942049;28;45229;-84
2022/03/02 01:33:57;;;;;;;;;53.00;43.33;;;;;8.38;100.00;101882.34;4945544;28;44866;-83
2022/03/02 01:36:23;;;;;;;;;47.67;38.67;;;;;8.37;100.00;101883.25;4948698;28;45254;-84
2022/03/02 01:38:49;;;;;;;;;56.33;43.33;;;;;8.34;100.00;101874.53;4948091;28;45253;-83
2022/03/02 01:41:16;;;;;;;;;58.33;45.67;;;;;8.27;100.00;101875.69;4944568;28;44785;-83
2022/03/02 01:43:43;;;;;;;;;51.33;41.33;;;;;8.23;100.00;101875.81;4944756;28;45365;-83
2022/03/02 01:46:09;;;;;;;;;50.67;41.67;;;;;8.24;100.00;101869.59;4942407;28;45279;-82
2022/03/02 01:48:34;;;;;;;;;51.67;39.00;;;;;8.22;100.00;101860.00;4942050;28;45350;-85
2022/03/02 01:50:59;;;;;;;;;54.67;44.00;;;;;8.20;100.00;101861.84;4943295;28;45450;-84
2022/03/02 01:53:25;;;;;;;;;53.00;42.33;;;;;8.21;100.00;101866.19;4926164;28;44845;-85
2022/03/02 01:55:50;;;;;;;;;52.67;42.00;;;;;8.20;100.00;101856.53;4942259;28;44910;-84
2022/03/02 01:58:16;;;;;;;;;52.33;41.67;;;;;8.21;100.00;101860.91;4942143;28;44898;-84
2022/03/02 02:00:41;;;;;;;;;50.00;42.67;;;;;8.22;100.00;101854.72;4946385;28;45303;-83
2022/03/02 02:03:08;;;;;;;;;56.00;44.33;;;;;8.20;100.00;101862.69;4950594;28;44872;-84
2022/03/02 02:05:34;;;;;;;;;60.00;44.67;;;;;8.19;100.00;101852.19;4949116;28;45494;-84
2022/03/02 02:08:00;;;;;;;;;44.00;37.00;;;;;8.20;100.00;101851.25;4943279;28;44821;-82
2022/03/02 02:10:25;;;;;;;;;54.67;43.33;;;;;8.21;100.00;101848.53;4943917;28;45301;-84
2022/03/02 02:12:51;;;;;;;;;49.33;39.67;;;;;8.21;100.00;101851.19;4943258;28;44892;-83
2022/03/02 02:15:16;;;;;;;;;49.00;38.67;;;;;8.18;100.00;101843.38;4926940;28;45422;-83
2022/03/02 02:17:42;;;;;;;;;52.67;42.00;;;;;8.17;100.00;101835.47;4941377;28;44745;-83
2022/03/02 02:20:09;;;;;;;;;45.67;38.00;;;;;8.14;100.00;101840.91;4940965;28;45216;-84
2022/03/02 02:22:44;;;;;;;;;55.00;43.33;;;;;8.09;100.00;101835.78;4925257;28;45490;-90
2022/03/02 02:25:11;;;;;;;;;59.67;43.00;;;;;8.04;100.00;101827.19;4938516;28;45545;-91
2022/03/02 02:27:38;;;;;;;;;55.67;43.33;;;;;7.97;100.00;101829.19;4944000;28;44789;-89
2022/03/02 02:30:04;;;;;;;;;56.67;45.00;;;;;7.93;100.00;101826.72;4926811;28;44718;-89
2022/03/02 02:32:30;;;;;;;;;53.00;44.67;;;;;7.89;100.00;101823.34;4948509;28;44879;-89
2022/03/02 02:34:59;;;;;;;;;54.00;44.00;;;;;7.89;100.00;101819.84;4965533;28;45257;-90
2022/03/02 02:37:25;;;;;;;;;51.33;43.00;;;;;7.89;100.00;101818.03;4964460;28;44740;-90
2022/03/02 02:39:59;;;;;;;;;53.00;42.33;;;;;7.89;100.00;101807.47;4964407;28;44852;-91
2022/03/02 02:42:25;;;;;;;;;43.33;36.67;;;;;7.90;100.00;101808.31;4965749;28;44878;-90
2022/03/02 02:44:52;;;;;;;;;49.33;39.67;;;;;7.87;100.00;101796.06;4961467;28;45288;-90
2022/03/02 02:47:17;;;;;;;;;50.00;39.33;;;;;7.90;100.00;101800.38;4941168;28;44731;-89
2022/03/02 02:49:43;;;;;;;;;55.33;44.00;;;;;7.88;100.00;101799.56;4952420;28;44715;-88
2022/03/02 02:52:08;;;;;;;;;52.67;42.33;;;;;7.86;100.00;101794.34;4934237;28;44819;-89
2022/03/02 02:54:33;;;;;;;;;51.67;41.33;;;;;7.85;100.00;101792.63;4953627;28;47073;-88
2022/03/02 02:56:59;;;;;;;;;52.67;44.33;;;;;7.82;100.00;101784.78;4958645;28;44672;-89
2022/03/02 02:59:24;;;;;;;;;60.00;44.33;;;;;7.80;100.00;101781.34;4958090;28;45208;-89
2022/03/02 03:01:50;;;;;;;;;47.00;38.00;;;;;7.80;100.00;101777.84;4958736;28;45306;-87
2022/03/02 03:04:17;;;;;;;;;50.67;39.33;;;;;7.80;100.00;101772.56;4940513;28;45650;-89
2022/03/02 03:06:42;;;;;;;;;54.67;43.33;;;;;7.79;100.00;101769.06;4937865;28;44840;-91
2022/03/02 03:09:09;;;;;;;;;46.67;38.00;;;;;7.80;100.00;101777.84;4934565;28;45331;-89
2022/03/02 03:11:40;;;;;;;;;53.33;40.67;;;;;7.77;100.00;101767.38;4951534;28;44876;-90
2022/03/02 03:14:10;;;;;;;;;53.00;42.33;;;;;7.76;100.00;101773.59;4933958;28;45732;-91
2022/03/02 03:16:36;;;;;;;;;54.33;41.67;;;;;7.74;100.00;101760.44;4936874;28;45185;-85
2022/03/02 03:19:02;;;;;;;;;54.33;42.33;;;;;7.73;100.00;101769.28;4943191;28;44902;-84
2022/03/02 03:21:28;;;;;;;;;51.67;42.00;;;;;7.69;100.00;101771.19;4946661;28;45396;-84
2022/03/02 03:23:53;;;;;;;;;52.00;41.67;;;;;7.68;100.00;101768.59;4945630;28;45186;-85
2022/03/02 03:26:18;;;;;;;;;53.33;43.33;;;;;7.67;100.00;101762.44;4940253;28;45323;-85
2022/03/02 03:28:44;;;;;;;;;40.33;36.00;;;;;7.66;100.00;101765.16;4923417;28;44796;-85
2022/03/02 03:31:09;;;;;;;;;57.67;42.00;;;;;7.67;100.00;101767.72;4940055;28;44916;-85
2022/03/02 03:33:35;;;;;;;;;53.33;41.00;;;;;7.68;100.00;101769.44;4941017;28;45403;-81
2022/03/02 03:36:02;;;;;;;;;53.33;42.67;;;;;7.69;100.00;101773.84;4941273;28;44721;-84
2022/03/02 03:38:27;;;;;;;;;56.67;42.33;;;;;7.68;100.00;101766.81;4940336;28;45001;-84
2022/03/02 03:40:53;;;;;;;;;50.00;42.67;;;;;7.68;100.00;101771.25;4941451;28;45280;-84
2022/03/02 03:43:18;;;;;;;;;55.33;42.33;;;;;7.69;100.00;101773.00;4941774;28;45016;-89
2022/03/02 03:45:44;;;;;;;;;55.00;43.33;;;;;7.70;100.00;101764.13;4954233;28;44808;-87
2022/03/02 03:48:12;;;;;;;;;57.67;44.00;;;;;7.69;100.00;101755.34;4954506;28;44777;-88
2022/03/02 03:50:39;;;;;;;;;55.00;44.00;;;;;7.71;100.00;101752.63;4957886;28;44813;-88
2022/03/02 03:53:05;;;;;;;;;54.00;45.33;;;;;7.73;100.00;101756.91;4956893;28;45152;-89
2022/03/02 03:55:30;;;;;;;;;52.67;41.33;;;;;7.76;100.00;101750.66;4937441;28;44861;-89
2022/03/02 03:57:56;;;;;;;;;49.67;37.33;;;;;7.77;100.00;101754.16;4931530;28;45168;-90
2022/03/02 04:00:22;;;;;;;;;53.67;39.67;;;;;7.77;100.00;101755.00;4927273;28;44896;-91
2022/03/02 04:02:47;;;;;;;;;48.00;39.67;;;;;7.80;100.00;101754.06;4926143;28;45095;-88
2022/03/02 04:05:13;;;;;;;;;47.67;38.00;;;;;7.82;100.00;101755.69;4951018;28;45493;-90
2022/03/02 04:07:39;;;;;;;;;46.67;40.33;;;;;7.84;100.00;101747.72;4952249;28;44738;-90
2022/03/02 04:10:06;;;;;;;;;52.67;43.00;;;;;7.86;100.00;101745.88;4948095;28;44823;-89
2022/03/02 04:12:31;;;;;;;;;57.67;42.33;;;;;7.85;100.00;101739.72;4930790;28;46237;-90
2022/03/02 04:14:57;;;;;;;;;57.00;43.00;;;;;7.88;100.00;101747.53;4944523;28;44852;-89
2022/03/02 04:17:23;;;;;;;;;58.00;43.00;;;;;7.89;100.00;101745.75;4928313;28;45310;-91
2022/03/02 04:19:49;;;;;;;;;54.33;42.33;;;;;7.86;100.00;101737.94;4947109;28;44839;-89
2022/03/02 04:22:14;;;;;;;;;56.33;44.67;;;;;7.83;100.00;101744.22;4948701;28;45004;-90
2022/03/02 04:24:40;;;;;;;;;52.67;42.00;;;;;7.81;100.00;101739.91;4930165;28;45263;-92
2022/03/02 04:27:06;;;;;;;;;54.33;44.33;;;;;7.79;100.00;101739.97;4945488;28;45321;-91
2022/03/02 04:29:32;;;;;;;;;56.33;45.33;;;;;7.76;100.00;101731.28;4928735;28;45260;-90
2022/03/02 04:31:57;;;;;;;;;55.67;43.00;;;;;7.78;100.00;101732.94;4947421;28;45264;-90
2022/03/02 04:34:22;;;;;;;;;53.00;42.00;;;;;7.75;100.00;101726.91;4930977;28;45263;-92
2022/03/02 04:36:48;;;;;;;;;40.67;35.00;;;;;7.69;100.00;101722.75;4933633;28;44853;-89
2022/03/02 04:39:14;;;;;;;;;54.00;45.00;;;;;7.70;100.00;101716.53;4948241;28;44791;-90
2022/03/02 04:41:40;;;;;;;;;54.33;43.33;;;;;7.67;100.00;101716.63;4946373;28;45210;-90
2022/03/02 04:44:05;;;;;;;;;46.33;37.33;;;;;7.66;100.00;101723.69;4946587;28;44828;-89
2022/03/02 04:46:31;;;;;;;;;35.00;33.67;;;;;7.67;100.00;101711.34;4932026;28;45332;-89
2022/03/02 04:48:56;;;;;;;;;53.00;39.33;;;;;7.66;100.00;101718.41;4950244;28;44978;-89
2022/03/02 04:51:22;;;;;;;;;49.33;42.00;;;;;7.70;100.00;101713.88;4950746;28;45260;-89
2022/03/02 04:53:50;;;;;;;;;55.00;43.67;;;;;7.66;100.00;101713.13;4947738;28;44686;-88
2022/03/02 04:56:15;;;;;;;;;51.33;43.00;;;;;7.67;100.00;101711.34;4930992;28;44648;-88
2022/03/02 04:58:41;;;;;;;;;49.33;41.67;;;;;7.67;100.00;101706.03;4947448;28;44856;-90
2022/03/02 05:01:07;;;;;;;;;52.67;41.00;;;;;7.66;100.00;101705.19;4949051;28;45322;-90
2022/03/02 05:03:32;;;;;;;;;52.67;44.00;;;;;7.68;100.00;101710.41;4947761;28;44681;-89
2022/03/02 05:05:58;;;;;;;;;51.33;41.33;;;;;7.68;100.00;101713.91;4952421;28;44809;-89
2022/03/02 05:08:23;;;;;;;;;57.67;46.67;;;;;7.67;100.00;101706.91;4937082;28;44945;-88
2022/03/02 05:10:49;;;;;;;;;55.67;43.33;;;;;7.65;100.00;101705.25;4954779;28;45011;-91
2022/03/02 05:13:14;;;;;;;;;55.00;40.00;;;;;7.62;100.00;101705.38;4939917;28;44686;-89
2022/03/02 05:15:40;;;;;;;;;49.33;40.00;;;;;7.64;100.00;101706.16;4936482;28;44828;-89
2022/03/02 05:18:05;;;;;;;;;51.67;41.33;;;;;7.64;100.00;101696.47;4953356;28;44939;-90
2022/03/02 05:20:30;;;;;;;;;40.00;33.00;;;;;7.64;100.00;101696.47;4937613;28;45378;-90
2022/03/02 05:22:56;;;;;;;;;49.33;38.67;;;;;7.64;100.00;101700.88;4955710;28;44724;-90
2022/03/02 05:25:24;;;;;;;;;53.67;43.33;;;;;7.63;100.00;101699.16;4954291;28;44902;-90
2022/03/02 05:27:50;;;;;;;;;53.33;41.33;;;;;7.63;100.00;101694.72;4955961;28;45352;-90
2022/03/02 05:30:16;;;;;;;;;55.33;42.67;;;;;7.59;100.00;101689.63;4941519;28;46811;-88
2022/03/02 05:32:43;;;;;;;;;55.33;44.00;;;;;7.54;100.00;101691.56;4954103;28;44785;-90
2022/03/02 05:35:09;;;;;;;;;54.33;42.67;;;;;7.52;100.00;101686.34;4946148;28;44843;-91
2022/03/02 05:37:35;;;;;;;;;53.00;41.67;;;;;7.46;100.00;101683.97;4929490;28;45355;-91
2022/03/02 05:40:02;;;;;;;;;50.33;41.33;;;;;7.38;100.00;101686.88;4943552;28;45792;-91
2022/03/02 05:42:28;;;;;;;;;57.67;44.00;;;;;7.41;100.00;101689.41;4947387;28;44791;-90
2022/03/02 05:44:53;;;;;;;;;51.00;41.33;;;;;7.40;100.00;101681.56;4950410;28;44808;-89
2022/03/02 05:47:19;;;;;;;;;52.33;41.33;;;;;7.41;100.00;101678.84;4933209;28;45190;-89
2022/03/02 05:49:44;;;;;;;;;52.33;43.00;;;;;7.44;100.00;101688.44;4947779;28;45247;-91
2022/03/02 05:52:09;;;;;;;;;58.67;46.00;;;;;7.40;100.00;101679.78;4946267;28;44732;-89
2022/03/02 05:54:35;;;;;;;;;47.33;38.67;;;;;7.42;100.00;101685.00;4949263;28;45449;-89
2022/03/02 05:57:00;;;;;;;;;47.33;38.67;;;;;7.42;100.00;101685.00;4952975;28;44969;-90
2022/03/02 05:59:25;;;;;;;;;47.33;38.33;;;;;7.42;100.00;101677.06;4949495;28;46837;-90
2022/03/02 06:01:51;;;;;;;;;52.67;39.67;;;;;7.43;100.00;101679.63;4948138;28;44764;-90
2022/03/02 06:04:17;;;;;;;;;53.00;38.67;;;;;7.43;100.00;101681.44;4968581;28;44765;-92
2022/03/02 06:06:42;;;;;;;;;56.00;42.67;;;;;7.44;100.00;101688.44;4971481;28;44915;-89
2022/03/02 06:09:10;;;;;;;;;59.67;42.67;;;;;7.39;100.00;101679.81;4971167;28;45311;-90
2022/03/02 06:11:37;;;;;;;;;49.67;42.00;;;;;7.34;100.00;101689.69;4966634;28;44746;-90
2022/03/02 06:14:04;;;;;;;;;55.67;45.00;;;;;7.35;100.00;101688.78;4967957;28;45262;-90
2022/03/02 06:16:29;;;;;;;;;46.67;39.33;;;;;7.35;100.00;101687.03;4948406;28;45285;-88
2022/03/02 06:18:55;;;;;;;;;51.33;39.67;;;;;7.38;100.00;101688.66;4964148;28;45075;-91
2022/03/02 06:21:27;;;;;;;;;56.00;42.67;;;;;7.39;100.00;101683.31;4969758;28;45347;-90
2022/03/02 06:23:53;;;;;;;;;54.67;41.67;;;;;7.42;100.00;101671.78;4973549;28;44767;-92
2022/03/02 06:26:19;;;;;;;;;52.67;38.67;;;;;7.45;100.00;101677.81;4973845;28;44819;-89
2022/03/02 06:28:45;;;;;;;;;50.00;41.67;;;;;7.42;100.00;101682.34;4957570;28;46714;-92
2022/03/02 06:31:13;;;;;;;;;49.67;39.00;;;;;7.42;100.00;101677.91;4967478;28;44716;-90
2022/03/02 06:33:38;;;;;;;;;59.33;44.00;;;;;7.38;100.00;101675.44;4968998;28;44780;-91
2022/03/02 06:36:04;;;;;;;;;57.00;45.67;;;;;7.34;100.00;101684.41;4967312;28;44944;-91
2022/03/02 06:38:31;;;;;;;;;56.67;47.00;;;;;7.28;100.00;101680.22;4965734;28;45323;-91
2022/03/02 06:41:14;;;;;;;;;51.67;43.00;;;;;7.20;100.00;101674.38;4963459;28;45343;-90
2022/03/02 06:43:56;;;;;;;;;54.67;45.33;;;;;7.17;100.00;101677.16;4949874;28;45328;-90
2022/03/02 06:46:44;;;;;;;;;57.00;43.67;;;;;7.18;100.00;101684.16;4968080;28;44967;-91
2022/03/02 06:49:25;;;;;;;;;58.67;46.00;;;;;7.20;100.00;101688.47;4970401;28;45390;-91
2022/03/02 06:51:57;;;;;;;;;51.33;42.33;;;;;7.24;100.00;101688.34;4981513;28;44588;-90
2022/03/02 06:54:27;;;;;;;;;49.33;37.00;;;;;7.23;100.00;101684.84;4944907;28;44752;-90
2022/03/02 06:56:58;;;;;;;;;52.00;40.67;;;;;7.27;100.00;101688.22;4979440;28;44614;-91
2022/03/02 06:59:42;;;;;;;;;50.00;42.00;;;;;7.28;100.00;101688.16;4975638;28;45302;-91
2022/03/02 07:02:08;;;;;;;;;49.00;40.33;;;;;7.32;100.00;101691.56;4956391;28;44932;-91
2022/03/02 07:04:40;;;;;;;;;31.33;29.33;;;;;7.35;100.00;101692.31;4969692;28;44669;-91
2022/03/02 07:07:05;;;;;;;;;50.00;40.00;;;;;7.39;100.00;101698.31;4951296;28;44804;-92
2022/03/02 07:09:33;;;;;;;;;49.00;40.00;;;;;7.38;100.00;101694.81;4951080;28;44982;-91
2022/03/02 07:12:01;;;;;;;;;55.00;45.00;;;;;7.43;100.00;101699.94;4979622;28;44606;-91
2022/03/02 07:14:32;;;;;;;;;53.00;40.33;;;;;7.45;100.00;101701.59;4980834;28;44699;-90
2022/03/02 07:17:00;;;;;;;;;52.67;42.33;;;;;7.53;100.00;101692.50;4976865;28;44871;-91
2022/03/02 07:19:26;;;;;;;;;53.33;40.33;;;;;7.53;100.00;101701.28;4963886;28;45388;-91
2022/03/02 07:21:52;;;;;;;;;46.33;36.67;;;;;7.59;100.00;101700.19;4973372;28;44702;-92
2022/03/02 07:24:19;;;;;;;;;47.00;39.33;;;;;7.67;100.00;101703.41;4970734;28;44646;-89
2022/03/02 07:26:49;;;;;;;;;53.33;42.67;;;;;7.75;100.00;101705.75;4953640;28;44849;-91
2022/03/02 07:29:18;;;;;;;;;51.67;40.33;;;;;7.79;100.00;101702.94;4959960;28;46174;-93
2022/03/02 07:31:45;;;;;;;;;51.33;41.33;;;;;7.87;100.00;101700.81;4978748;28;44791;-90
2022/03/02 07:34:14;;;;;;;;;56.33;41.00;;;;;7.98;100.00;101697.78;4959287;28;45391;-90
2022/03/02 07:36:41;;;;;;;;;47.33;38.00;;;;;8.07;100.00;101700.00;4958538;28;44970;-91
2022/03/02 07:39:09;;;;;;;;;54.33;45.00;;;;;8.13;100.00;101705.06;4976241;28;45172;-91
2022/03/02 07:41:35;;;;;;;;;51.00;39.67;;;;;8.18;100.00;101703.09;4978618;28;44800;-90
2022/03/02 07:44:04;;;;;;;;;54.67;43.33;;;;;8.24;100.00;101701.97;4975215;28;44779;-93
2022/03/02 07:46:30;;;;;;;;;52.33;42.00;;;;;8.29;100.00;101699.13;4959242;28;44956;-92
2022/03/02 07:48:56;;;;;;;;;46.33;39.67;;;;;8.36;100.00;101695.28;4954471;28;44974;-91
2022/03/02 07:51:23;;;;;;;;;53.67;42.67;;;;;8.46;100.00;101691.34;4954937;28;44554;-93
2022/03/02 07:53:51;;;;;;;;;56.67;39.00;;;;;8.55;100.00;101690.97;4972525;28;44773;-91
2022/03/02 07:56:18;;;;;;;;;46.67;38.00;;;;;8.62;100.00;101684.50;4954843;28;44871;-92
2022/03/02 07:58:44;;;;;;;;;48.67;38.00;;;;;8.73;100.00;101689.31;4976156;28;45586;-91
2022/03/02 08:01:16;;;;;;;;;55.33;42.00;;;;;8.79;100.00;101682.88;4939184;28;44635;-92
2022/03/02 08:03:43;;;;;;;;;51.00;41.67;;;;;8.85;100.00;101679.94;4973290;28;44740;-91
2022/03/02 08:06:10;;;;;;;;;48.00;40.00;;;;;8.93;100.00;101683.97;4975603;28;44855;-91
2022/03/02 08:08:36;;;;;;;;;51.00;42.00;;;;;9.02;100.00;101683.56;4941749;28;45262;-91
2022/03/02 08:11:04;;;;;;;;;51.00;39.00;;;;;9.09;100.00;101683.28;4955680;28;44696;-92
2022/03/02 08:13:31;;;;;;;;;38.67;34.67;;;;;9.17;100.00;101679.34;4956553;28;44784;-92
2022/03/02 08:15:58;;;;;;;;;46.67;38.67;;;;;9.31;100.00;101686.69;4954685;28;44928;-89
2022/03/02 08:18:23;;;;;;;;;46.00;37.67;;;;;9.38;100.00;101690.78;4963178;28;45061;-91
2022/03/02 08:20:54;;;;;;;;;46.67;38.00;;;;;9.43;100.00;101685.25;4966705;28;44778;-89
2022/03/02 08:23:27;;;;;;;;;52.33;40.33;;;;;9.52;100.00;101691.00;4963893;28;44804;-90
2022/03/02 08:25:53;;;;;;;;;50.67;38.67;;;;;9.63;100.00;101686.97;4974945;28;44802;-91
2022/03/02 08:28:21;;;;;;;;;47.00;39.67;;;;;9.73;100.00;101688.25;4970731;28;46553;-90
2022/03/02 08:30:53;;;;;;;;;45.00;37.67;;;;;9.84;100.00;101677.09;4953086;28;45405;-91
2022/03/02 08:33:25;;;;;;;;;41.33;33.67;;;;;9.97;100.00;101671.13;4955254;28;44801;-92
2022/03/02 08:35:51;;;;;;;;;37.33;33.67;;;;;10.07;100.00;101671.53;4950221;28;45353;-90
2022/03/02 08:38:17;;;;;;;;;52.33;41.00;;;;;10.17;100.00;101679.91;4950346;28;45260;-89
2022/03/02 08:40:44;;;;;;;;;49.00;38.67;;;;;10.20;100.00;101685.91;4966367;28;45323;-91
2022/03/02 08:43:13;;;;;;;;;40.33;34.00;;;;;10.34;100.00;101693.19;4948339;28;44789;-91
2022/03/02 08:45:38;;;;;;;;;50.00;37.33;;;;;10.46;100.00;101691.72;4962248;28;45248;-92
2022/03/02 08:48:05;;;;;;;;;51.00;38.33;;;;;10.51;100.00;101700.31;4964598;28;46621;-91
2022/03/02 08:50:31;;;;;;;;;48.33;37.00;;;;;10.49;99.76;101696.88;4966874;28;44757;-91
2022/03/02 08:52:57;;;;;;;;;46.00;38.67;;;;;10.47;99.71;101693.44;4972003;28;44733;-91
2022/03/02 08:55:31;;;;;;;;;41.33;34.33;;;;;10.46;98.78;101694.38;4979617;28;44792;-91
2022/03/02 08:57:57;;;;;;;;;46.33;37.00;;;;;10.57;99.39;101696.50;4955726;28;46809;-89
2022/03/02 09:00:22;;;;;;;;;46.33;36.33;;;;;10.60;98.00;101693.69;4975287;28;45131;-91
2022/03/02 09:02:52;;;;;;;;;48.67;38.00;;;;;10.71;98.94;101691.31;4971896;28;45334;-90
2022/03/02 09:05:18;;;;;;;;;48.33;38.33;;;;;10.81;99.10;101696.06;4952688;28;44805;-91
2022/03/02 09:07:45;;;;;;;;;49.33;34.67;;;;;10.89;98.25;101692.16;4964896;28;45222;-92
2022/03/02 09:10:10;;;;;;;;;51.00;37.67;;;;;10.97;98.09;101695.25;4963458;28;45262;-90
2022/03/02 09:12:36;;;;;;;;;47.33;38.33;;;;;11.02;97.25;101695.88;4963930;28;45233;-89
2022/03/02 09:15:02;;;;;;;;;46.00;35.00;;;;;11.03;97.03;101686.97;4947831;28;44989;-90
2022/03/02 09:17:28;;;;;;;;;48.00;38.33;;;;;11.09;97.09;101689.28;4966376;28;45385;-91
2022/03/02 09:19:56;;;;;;;;;46.67;38.67;;;;;11.18;96.75;101685.28;4964753;28;44783;-91
2022/03/02 09:22:24;;;;;;;;;46.00;39.67;;;;;11.25;96.38;101681.34;4949551;28;45386;-92
2022/03/02 09:24:50;;;;;;;;;46.00;36.67;;;;;11.25;96.39;101679.53;4968951;28;44977;-91
2022/03/02 09:27:18;;;;;;;;;45.00;36.00;;;;;11.37;96.88;101678.00;4969787;28;45200;-92
2022/03/02 09:29:46;;;;;;;;;45.00;37.33;;;;;11.44;96.14;101670.53;4971415;28;45464;-90
2022/03/02 09:32:13;;;;;;;;;51.00;40.00;;;;;11.51;96.18;101666.63;4969046;28;44827;-91
2022/03/02 09:34:43;;;;;;;;;49.67;39.00;;;;;11.58;96.28;101671.50;4967239;28;44943;-90
2022/03/02 09:37:09;;;;;;;;;43.00;33.33;;;;;11.65;96.04;101664.00;4975218;28;44968;-91
2022/03/02 09:39:35;;;;;;;;;52.33;40.67;;;;;11.71;95.26;101669.00;4964663;28;44836;-91
2022/03/02 09:42:11;;;;;;;;;43.67;35.67;;;;;11.73;95.33;101672.41;4981800;28;45201;-91
2022/03/02 09:44:41;;;;;;;;;45.00;37.67;;;;;11.73;95.02;101669.75;4981786;28;45339;-90
2022/03/02 09:47:11;;;;;;;;;47.33;38.67;;;;;11.82;95.13;101663.09;4978981;28;45084;-89
2022/03/02 09:49:40;;;;;;;;;47.00;37.67;;;;;11.91;94.42;101667.03;4964915;28;44761;-89
2022/03/02 09:52:09;;;;;;;;;52.33;41.67;;;;;11.97;94.86;101675.53;4983007;28;44637;-89
2022/03/02 09:54:40;;;;;;;;;50.67;41.00;;;;;12.08;94.84;101658.91;4967335;28;44860;-88
2022/03/02 09:57:08;;;;;;;;;48.33;39.00;;;;;12.14;94.27;101663.03;4982755;28;45245;-89
2022/03/02 09:59:39;;;;;;;;;28.67;28.67;;;;;12.15;92.84;101660.28;4960570;28;44802;-90
2022/03/02 10:02:10;;;;;;;;;48.00;39.00;;;;;12.17;93.11;101657.50;4964624;28;44683;-90
2022/03/02 10:04:40;;;;;;;;;44.33;37.67;;;;;12.22;93.85;101658.97;4983738;28;44811;-92
2022/03/02 10:07:27;;;;;;;;;44.67;35.33;;;;;12.37;93.62;101661.66;4983246;28;45197;-89
2022/03/02 10:10:03;;;;;;;;;49.00;39.00;;;;;12.51;93.37;101656.38;4968945;28;44611;-90
2022/03/02 10:12:32;;;;;;;;;50.00;39.00;;;;;12.63;93.27;101657.44;4966608;28;44693;-90
2022/03/02 10:15:02;;;;;;;;;44.67;35.67;;;;;12.75;93.20;101656.69;4946532;28;44967;-91
2022/03/02 10:17:39;;;;;;;;;47.00;39.00;;;;;12.85;91.27;101655.16;4960844;28;46805;-90
2022/03/02 10:20:11;;;;;;;;;44.67;34.33;;;;;12.91;91.08;101651.25;4957362;28;45271;-91
2022/03/02 10:23:01;;;;;;;;;41.67;35.67;;;;;12.94;90.13;101653.75;4973790;28;44745;-91
2022/03/02 10:25:55;;;;;;;;;49.00;37.33;;;;;12.96;91.35;101643.81;4973374;28;44768;-91
2022/03/02 10:29:00;;;;;;;;;46.67;37.33;;;;;13.12;90.22;101647.25;4950897;28;45226;-91
2022/03/02 10:31:28;;;;;;;;;47.00;36.33;;;;;13.23;89.28;101647.47;4973835;28;44741;-92
2022/03/02 10:34:00;;;;;;;;;46.67;39.33;;;;;13.13;90.55;101647.16;4972897;28;44724;-92
2022/03/02 10:36:28;;;;;;;;;48.00;39.00;;;;;13.15;89.02;101640.84;4954073;28;44846;-92
2022/03/02 10:39:07;;;;;;;;;51.67;39.33;;;;;13.12;87.12;101645.44;4969568;28;45249;-92
2022/03/02 10:41:45;;;;;;;;;45.33;38.33;;;;;13.09;89.47;101637.63;4967645;28;44780;-92
2022/03/02 10:44:32;;;;;;;;;47.67;37.33;;;;;13.38;89.34;101638.47;4950815;28;45393;-90
2022/03/02 10:47:03;;;;;;;;;49.00;40.67;;;;;13.62;88.55;101628.00;4965589;28;44799;-92
2022/03/02 10:49:31;;;;;;;;;60.33;46.67;;;;;13.44;87.75;101631.91;4965225;28;45710;-92
2022/03/02 10:52:00;;;;;;;;;50.00;42.00;;;;;13.45;90.95;101625.59;4964837;28;44686;-92
2022/03/02 10:54:27;;;;;;;;;49.67;38.00;;;;;13.45;88.04;101620.25;4964247;28;45203;-92
2022/03/02 10:56:54;;;;;;;;;49.33;39.00;;;;;13.58;86.97;101628.31;4945769;28;44909;-93
2022/03/02 10:59:25;;;;;;;;;52.67;43.33;;;;;13.74;87.27;101613.03;4946393;28;45814;-92
2022/03/02 11:01:52;;;;;;;;;53.33;41.00;;;;;13.84;86.55;101611.44;4953483;28;44704;-92
2022/03/02 11:04:20;;;;;;;;;59.00;44.33;;;;;13.95;86.48;101607.19;4970184;28;44654;-91
2022/03/02 11:06:46;;;;;;;;;50.00;38.33;;;;;13.95;84.84;101608.06;4968757;28;44929;-91
2022/03/02 11:09:11;;;;;;;;;57.67;47.67;;;;;14.11;85.11;101602.53;4966331;28;45442;-90
2022/03/02 11:11:37;;;;;;;;;46.67;39.00;;;;;14.28;84.51;101604.06;4964726;28;45240;-93